Time;durP1;ratioP1;P1;durP2;ratioP2;P2;SDS_P1;SDS_P2;PMS_P1;PMS_P2;Temp;Humidity;BMP_temperature;BMP_pressure;BME280_temperature;BME280_humidity;BME280_pressure;Samples;Min_cycle;Max_cycle;Signal;HPM_P1;HPM_P2
2022/08/11 00:02:35;;;;;;;1.55;0.90;;;;;;;16.66;59.06;100317.75;5110068;28;20035;-52
2022/08/11 00:05:07;;;;;;;2.33;1.10;;;;;;;16.64;59.16;100310.88;5109701;28;20044;-49
2022/08/11 00:07:41;;;;;;;3.30;1.60;;;;;;;16.65;59.32;100320.44;5109706;28;20059;-53
2022/08/11 00:10:10;;;;;;;3.35;1.08;;;;;;;16.65;59.21;100317.81;5108199;28;20068;-54
2022/08/11 00:12:36;;;;;;;3.95;1.20;;;;;;;16.62;59.40;100320.59;5107608;28;20046;-52
2022/08/11 00:15:02;;;;;;;7.35;1.13;;;;;;;16.42;59.51;100296.16;5109306;28;20035;-51
2022/08/11 00:17:31;;;;;;;5.15;1.80;;;;;;;16.58;59.74;100327.75;5108208;28;20130;-52
2022/08/11 00:20:08;;;;;;;7.20;1.70;;;;;;;16.57;59.63;100327.81;5108145;28;20040;-50
2022/08/11 00:22:37;;;;;;;7.97;1.55;;;;;;;16.56;60.03;100328.75;5109257;28;20036;-49
2022/08/11 00:25:21;;;;;;;4.60;1.40;;;;;;;16.54;60.15;100332.28;5091975;28;20040;-50
2022/08/11 00:27:48;;;;;;;7.38;2.10;;;;;;;16.54;60.33;100331.44;5109592;28;20047;-52
2022/08/11 00:30:38;;;;;;;3.80;1.52;;;;;;;16.52;60.32;100334.16;5109644;28;20095;-51
2022/08/11 00:33:05;;;;;;;5.55;1.50;;;;;;;16.50;60.49;100336.00;5110592;28;20074;-52
2022/08/11 00:35:32;;;;;;;7.70;1.90;;;;;;;16.47;60.42;100330.91;5092548;28;20131;-51
2022/08/11 00:37:58;;;;;;;7.95;2.38;;;;;;;16.49;60.63;100338.69;5109496;28;20043;-51
2022/08/11 00:40:42;;;;;;;5.22;1.98;;;;;;;16.44;60.72;100333.66;5110471;28;20464;-50
2022/08/11 00:43:38;;;;;;;7.13;2.55;;;;;;;16.40;61.01;100334.72;5092481;28;20032;-52
2022/08/11 00:46:13;;;;;;;5.75;2.75;;;;;;;16.36;60.86;100337.56;5110585;28;20036;-52
2022/08/11 00:48:59;;;;;;;7.65;2.53;;;;;;;16.35;61.33;100338.50;5109225;28;20483;-51
2022/08/11 00:51:48;;;;;;;4.38;2.35;;;;;;;16.32;61.39;100338.66;5110421;28;20058;-49
2022/08/11 00:54:38;;;;;;;6.32;2.40;;;;;;;16.28;61.50;100334.44;5070259;28;20051;-52
2022/08/11 00:57:13;;;;;;;10.93;2.30;;;;;;;16.24;61.73;100339.00;5109103;28;20138;-52
2022/08/11 01:00:03;;;;;;;4.20;2.00;;;;;;;16.21;61.96;100335.69;5110453;28;20036;-50
2022/08/11 01:03:07;;;;;;;4.97;2.28;;;;;;;16.17;62.12;100342.84;5109815;28;20184;-54
2022/08/11 01:05:45;;;;;;;9.43;2.35;;;;;;;16.13;62.06;100341.28;5090117;28;20189;-47
2022/08/11 01:08:22;;;;;;;6.68;2.00;;;;;;;16.09;62.42;100342.34;5094067;28;20428;-51
2022/08/11 01:10:57;;;;;;;7.85;1.98;;;;;;;16.07;62.78;100352.91;5094143;28;20068;-50
2022/08/11 01:13:41;;;;;;;12.02;1.90;;;;;;;16.08;62.96;100348.50;5093905;28;20093;-52
2022/08/11 01:16:33;;;;;;;3.65;1.42;;;;;;;16.07;63.09;100352.03;5092689;28;20046;-52
2022/08/11 01:19:20;;;;;;;4.82;1.33;;;;;;;16.05;63.11;100352.13;5072339;28;20055;-51
2022/08/11 01:21:59;;;;;;;4.72;1.38;;;;;;;16.03;63.25;100355.75;5092692;28;20035;-50
2022/08/11 01:25:03;;;;;;;9.25;1.40;;;;;;;16.02;63.45;100356.66;5102845;28;20031;-53
2022/08/11 01:27:57;;;;;;;3.60;1.50;;;;;;;16.00;63.34;100358.50;5072416;28;20051;-51
2022/08/11 01:30:45;;;;;;;5.57;1.33;;;;;;;15.99;63.41;100352.41;5113976;28;20537;-48
2022/08/11 01:33:35;;;;;;;6.38;1.48;;;;;;;15.97;63.89;100364.72;5113975;28;20173;-49
2022/08/11 01:36:40;;;;;;;2.08;1.00;;;;;;;15.96;63.67;100359.59;5112412;28;20036;-49
2022/08/11 01:39:41;;;;;;;2.85;1.38;;;;;;;15.68;64.11;100326.75;5030904;28;20132;-52
2022/08/11 01:45:31;;;;;;;5.60;1.27;;;;;;;15.88;64.25;100366.94;5113684;28;20066;-47
2022/08/11 01:48:13;;;;;;;3.15;1.33;;;;;;;15.88;64.13;100372.16;5113547;28;20087;-48
2022/08/11 01:50:47;;;;;;;4.47;1.48;;;;;;;15.89;64.11;100372.13;5111958;28;20031;-53
2022/08/11 01:53:43;;;;;;;11.85;1.67;;;;;;;15.86;64.55;100371.41;5095792;28;20062;-50
2022/08/11 01:56:46;;;;;;;6.70;1.40;;;;;;;15.85;64.66;100375.81;5007785;28;20073;-49
2022/08/11 01:59:14;;;;;;;7.43;1.67;;;;;;;15.83;64.40;100375.00;5113203;28;20035;-48
2022/08/11 02:02:18;;;;;;;4.18;1.60;;;;;;;15.84;64.48;100376.72;5112039;28;20620;-50
2022/08/11 02:04:56;;;;;;;12.00;1.90;;;;;;;15.84;64.59;100366.22;5113239;28;20633;-50
2022/08/11 02:07:25;;;;;;;5.55;1.85;;;;;;;15.84;64.88;100381.09;5112145;28;20041;-50
2022/08/11 02:11:29;;;;;;;7.28;1.80;;;;;;;15.83;64.91;100380.25;5111959;28;20189;-51
2022/08/11 02:13:14;;;;;;;5.57;1.40;;;;;;;15.82;65.32;100385.56;5113235;28;20050;-50
2022/08/11 02:15:46;;;;;;;6.35;1.55;;;;;;;15.67;65.22;100353.00;5112982;28;20070;-48
2022/08/11 02:23:38;;;;;;;6.93;1.73;;;;;;;15.60;65.11;100339.31;5093763;28;20091;-49
2022/08/11 02:24:03;;;;;;;6.28;1.90;;;;;;;15.63;65.34;100354.06;5112748;28;20067;-51
2022/08/11 02:26:52;;;;;;;8.48;1.85;;;;;;;15.85;65.55;100388.06;5112898;28;20065;-49
2022/08/11 02:29:23;;;;;;;10.48;1.90;;;;;;;15.66;65.25;100361.78;5112329;28;20044;-47
2022/08/11 02:35:09;;;;;;;6.10;2.00;;;;;;;15.79;65.42;100389.19;5112640;28;20028;-52
2022/08/11 02:37:42;;;;;;;10.73;2.38;;;;;;;15.83;65.86;100384.63;5112628;28;20088;-49
2022/08/11 02:40:26;;;;;;;11.85;1.85;;;;;;;15.84;66.01;100381.09;5112514;28;20042;-47
2022/08/11 02:43:13;;;;;;;6.00;2.13;;;;;;;15.85;66.25;100401.16;5111626;28;20426;-51
2022/08/11 02:45:55;;;;;;;8.52;2.15;;;;;;;15.83;66.45;100398.59;5111398;28;20036;-50
2022/08/11 02:51:38;;;;;;;5.50;2.00;;;;;;;15.86;66.52;100402.88;5111483;28;20035;-52
2022/08/11 02:54:15;;;;;;;7.05;2.08;;;;;;;15.89;66.55;100406.22;5111086;28;20089;-50
2022/08/11 02:56:57;;;;;;;5.03;1.95;;;;;;;15.89;66.70;100400.09;5112280;28;20062;-50
2022/08/11 03:02:30;;;;;;;7.25;1.73;;;;;;;15.97;66.85;100408.47;5111252;28;20043;-50
2022/08/11 03:04:56;;;;;;;7.03;1.95;;;;;;;15.98;67.15;100405.78;5111030;28;20047;-50
2022/08/11 03:07:40;;;;;;;5.07;1.90;;;;;;;16.02;66.91;100412.59;5112119;28;20046;-48
2022/08/11 03:10:32;;;;;;;5.00;2.10;;;;;;;15.86;67.10;100384.53;5111985;28;20035;-50
2022/08/11 03:19:31;;;;;;;36.97;3.97;;;;;;;16.09;67.22;100413.16;5110792;28;20042;-52
2022/08/11 03:22:18;;;;;;;9.93;2.03;;;;;;;16.19;67.34;100421.47;5111824;28;20046;-53
2022/08/11 03:25:02;;;;;;;10.25;2.30;;;;;;;16.23;67.59;100420.41;5111709;28;20510;-49
2022/08/11 03:27:57;;;;;;;7.60;1.98;;;;;;;16.27;67.65;100427.25;5111620;28;20043;-52
2022/08/11 03:30:49;;;;;;;9.40;2.05;;;;;;;16.31;67.71;100419.16;5110270;28;20067;-49
2022/08/11 03:36:34;;;;;;;10.27;2.67;;;;;;;16.37;67.60;100420.66;5075601;28;20071;-50
2022/08/11 03:39:02;;;;;;;9.32;2.05;;;;;;;16.41;67.51;100425.69;5089837;28;20690;-52
2022/08/11 03:41:57;;;;;;;13.80;2.55;;;;;;;16.46;67.63;100436.81;5091115;28;20040;-48
2022/08/11 03:44:31;;;;;;;10.75;2.28;;;;;;;16.38;67.37;100407.44;5068181;28;20594;-51
2022/08/11 03:47:17;;;;;;;9.73;2.20;;;;;;;16.58;67.24;100440.66;5089915;28;20063;-51
2022/08/11 03:49:56;;;;;;;13.25;2.60;;;;;;;16.59;67.36;100438.91;5089716;28;20094;-50
2022/08/11 03:53:01;;;;;;;8.25;2.45;;;;;;;16.65;67.03;100447.31;5089503;28;20048;-47
2022/08/11 03:55:33;;;;;;;6.53;1.92;;;;;;;16.68;67.19;100449.81;5089272;28;20051;-53
2022/08/11 03:58:28;;;;;;;11.93;2.67;;;;;;;16.72;67.05;100443.50;5090985;28;20048;-48
2022/08/11 04:01:19;;;;;;;6.53;2.10;;;;;;;16.76;67.19;100445.03;5090645;28;20075;-50
2022/08/11 04:04:03;;;;;;;8.65;2.45;;;;;;;16.77;66.87;100436.25;5089343;28;20525;-50
2022/08/11 04:06:50;;;;;;;5.53;2.13;;;;;;;16.83;67.13;100435.09;5089682;28;20051;-51
2022/08/11 04:09:37;;;;;;;7.20;2.03;;;;;;;16.86;67.21;100438.44;5090633;28;20047;-48
2022/08/11 04:12:15;;;;;;;7.65;2.30;;;;;;;16.92;67.02;100434.66;5090654;28;20085;-48
2022/08/11 04:17:48;;;;;;;9.35;2.15;;;;;;;17.03;66.57;100432.38;5074934;28;20044;-53
2022/08/11 04:20:57;;;;;;;7.60;1.95;;;;;;;16.84;66.10;100395.66;5089191;28;20431;-49
2022/08/11 04:23:48;;;;;;;4.95;1.77;;;;;;;17.13;66.11;100436.22;5053857;28;20526;-52
2022/08/11 04:26:54;;;;;;;5.93;2.10;;;;;;;17.17;66.17;100431.66;5110551;28;20489;-50
2022/08/11 04:29:42;;;;;;;6.75;1.88;;;;;;;17.22;65.88;100434.91;5081274;28;20082;-51
2022/08/11 04:32:32;;;;;;;5.25;2.20;;;;;;;17.26;65.77;100437.34;5110450;28;20043;-49
2022/08/11 04:35:22;;;;;;;5.25;2.10;;;;;;;17.32;65.89;100439.66;5109391;28;20044;-48
2022/08/11 04:37:56;;;;;;;6.80;2.05;;;;;;;17.38;65.75;100441.97;5110466;28;20430;-48
2022/08/11 04:41:07;;;;;;;7.95;2.38;;;;;;;17.47;65.53;100440.69;5109365;28;20044;-51
2022/08/11 04:44:10;;;;;;;9.38;2.38;;;;;;;17.53;65.42;100435.13;5077812;28;20055;-49
2022/08/11 04:46:42;;;;;;;14.32;2.13;;;;;;;17.61;65.26;100440.00;5114822;28;20490;-50
2022/08/11 05:01:54;;;;;;;12.32;2.28;;;;;;;18.01;64.60;100444.03;5113465;28;20051;-51
2022/08/11 05:07:54;;;;;;;12.45;3.47;;;;;;;18.21;64.35;100438.56;5096241;28;20092;-52
2022/08/11 05:10:23;;;;;;;6.53;2.40;;;;;;;18.30;64.12;100434.59;5112976;28;20044;-51
2022/08/11 05:27:09;;;;;;;5.78;2.05;;;;;;;18.38;63.99;100442.91;5114328;28;20035;-52
2022/08/11 05:35:49;;;;;;;3.83;1.70;;;;;;;19.21;61.35;100453.22;5113915;28;20039;-52
2022/08/11 05:58:02;;;;;;;5.07;1.95;;;;;;;20.37;58.61;100441.81;5112268;28;20134;-52
2022/08/11 06:00:28;;;;;;;3.78;1.70;;;;;;;20.46;58.17;100451.81;5112006;28;20418;-50
2022/08/11 06:02:57;;;;;;;9.00;3.65;;;;;;;20.56;57.60;100437.94;5112087;28;20151;-54
2022/08/11 06:05:33;;;;;;;8.55;2.50;;;;;;;20.56;57.12;100419.44;5095520;28;20510;-49
2022/08/11 06:07:59;;;;;;;5.30;2.00;;;;;;;20.81;56.36;100433.72;5113441;28;20241;-51
2022/08/11 06:10:32;;;;;;;6.32;3.83;;;;;;;20.79;55.69;100410.03;5094941;28;20032;-50
2022/08/11 06:13:00;;;;;;;5.43;1.88;;;;;;;20.95;55.44;100412.50;5111748;28;20413;-52
2022/08/11 06:15:26;;;;;;;7.25;3.17;;;;;;;21.29;55.25;100435.81;5095032;28;20525;-51
2022/08/11 06:17:54;;;;;;;3.45;1.77;;;;;;;21.47;55.15;100442.50;5112821;27;20507;-54
2022/08/11 06:20:21;;;;;;;5.65;1.50;;;;;;;21.67;54.82;100440.34;5113126;28;20040;-52
2022/08/11 06:22:55;;;;;;;3.13;2.20;;;;;;;21.86;54.13;100444.25;5111711;28;20587;-52
2022/08/11 06:25:22;;;;;;;4.50;1.90;;;;;;;22.08;53.37;100441.00;5111655;28;20047;-50
2022/08/11 06:27:55;;;;;;;3.72;1.63;;;;;;;22.48;52.23;100446.97;5111744;28;20044;-53
2022/08/11 06:30:39;;;;;;;7.90;1.90;;;;;;;23.48;49.78;100444.06;5111221;28;20499;-52
2022/08/11 06:33:31;;;;;;;5.57;2.08;;;;;;;24.91;47.28;100454.91;5092167;28;20048;-52
2022/08/11 06:36:17;;;;;;;4.32;2.67;;;;;;;25.88;44.44;100420.06;5092012;28;20052;-53
2022/08/11 06:39:07;;;;;;;3.83;1.65;;;;;;;27.12;42.12;100456.13;5090864;28;20040;-50
2022/08/11 06:41:39;;;;;;;3.40;1.42;;;;;;;28.22;40.37;100454.75;5091170;28;20044;-53
2022/08/11 06:44:11;;;;;;;5.38;1.70;;;;;;;29.21;38.80;100459.25;5074357;28;20051;-52
2022/08/11 06:46:38;;;;;;;2.25;1.50;;;;;;;30.04;37.04;100441.88;5098779;28;20046;-54
2022/08/11 06:49:05;;;;;;;4.88;1.60;;;;;;;30.96;35.31;100459.84;5112521;28;20453;-54
2022/08/11 06:51:34;;;;;;;4.28;2.15;;;;;;;31.73;33.62;100434.38;5112460;28;20050;-51
2022/08/11 06:54:00;;;;;;;6.72;1.40;;;;;;;32.63;31.76;100439.31;5111120;28;20093;-54
2022/08/11 07:02:35;;;;;;;2.13;1.70;;;;;;;35.50;27.50;100468.34;5110694;28;20455;-54
2022/08/11 07:05:13;;;;;;;5.38;1.95;;;;;;;36.41;25.77;100457.38;5047932;28;20037;-55
2022/08/11 07:16:33;;;;;;;2.22;1.70;;;;;;;39.17;21.71;100444.66;5109575;28;20130;-55
2022/08/11 07:30:09;;;;;;;2.22;1.70;;;;;;;40.52;19.92;100447.34;5085191;28;20488;-56
2022/08/11 07:32:41;;;;;;;3.70;1.80;;;;;;;41.41;18.57;100451.97;5109930;28;20044;-57
2022/08/11 07:35:12;;;;;;;2.53;1.73;;;;;;;42.20;18.14;100456.03;5109568;28;20069;-57
2022/08/11 07:37:42;;;;;;;3.28;1.70;;;;;;;42.99;17.59;100459.00;5108605;28;20051;-57
2022/08/11 07:40:09;;;;;;;3.58;1.90;;;;;;;43.21;16.71;100451.78;5110066;28;20048;-56
2022/08/11 07:42:37;;;;;;;2.10;1.95;;;;;;;43.29;16.71;100451.34;5108539;28;20473;-55
2022/08/11 07:53:25;;;;;;;7.30;2.70;;;;;;;45.07;14.82;100452.72;5107083;28;20047;-56
2022/08/11 07:55:53;;;;;;;4.18;2.05;;;;;;;45.15;14.75;100456.91;5091334;28;20048;-54
2022/08/11 08:17:52;;;;;;;4.50;2.78;;;;;;;44.87;14.88;100436.03;5105084;28;20044;-54
2022/08/11 08:20:22;;;;;;;4.50;2.47;;;;;;;45.13;14.61;100428.88;5106353;28;20059;-57
2022/08/11 08:22:55;;;;;;;7.70;2.90;;;;;;;45.52;14.17;100421.25;5102654;28;20052;-55
2022/08/11 08:25:32;;;;;;;2.60;2.33;;;;;;;45.48;14.41;100437.44;5104649;28;20047;-56
2022/08/11 08:27:59;;;;;;;6.57;2.50;;;;;;;45.77;13.92;100443.38;5102382;28;20036;-57
2022/08/11 08:33:13;;;;;;;4.43;2.23;;;;;;;46.30;13.38;100434.09;5107070;28;20572;-57
2022/08/11 08:35:40;;;;;;;3.25;2.15;;;;;;;46.27;12.97;100420.84;5105536;28;20507;-57
2022/08/11 08:38:06;;;;;;;6.00;2.40;;;;;;;45.93;13.24;100428.66;5071986;28;20040;-56
2022/08/11 08:40:33;;;;;;;2.30;2.10;;;;;;;46.14;12.99;100431.50;5098760;28;20419;-56
2022/08/11 08:43:04;;;;;;;2.57;2.37;;;;;;;45.62;13.38;100425.97;5107509;28;20054;-57
2022/08/11 08:45:33;;;;;;;2.33;2.20;;;;;;;44.55;13.63;100429.59;5108211;28;20071;-57
2022/08/11 08:48:05;;;;;;;3.25;2.13;;;;;;;44.05;14.00;100418.84;5108551;28;20045;-57
2022/08/11 08:53:22;;;;;;;6.13;2.47;;;;;;;44.23;14.50;100429.50;5105632;28;20060;-56
2022/08/11 08:55:49;;;;;;;2.13;2.00;;;;;;;43.44;14.67;100423.41;5108965;28;20067;-58
2022/08/11 08:58:18;;;;;;;3.38;2.50;;;;;;;43.38;14.95;100427.13;5105945;28;20635;-56
2022/08/11 09:00:45;;;;;;;3.08;2.30;;;;;;;44.44;13.99;100430.63;5109041;28;20039;-57
2022/08/11 09:03:12;;;;;;;8.30;4.47;;;;;;;44.76;14.26;100428.78;5090732;28;20055;-57
2022/08/11 09:05:39;;;;;;;7.13;2.45;;;;;;;45.37;13.54;100408.22;5108318;28;20058;-57
2022/08/11 09:08:06;;;;;;;4.25;2.13;;;;;;;45.93;12.49;100414.91;5110251;28;20071;-56
2022/08/11 09:10:32;;;;;;;4.53;3.70;;;;;;;46.36;12.47;100422.00;5107588;28;20147;-57
2022/08/11 09:12:59;;;;;;;2.80;2.47;;;;;;;46.91;12.25;100417.75;5108884;28;20105;-57
2022/08/11 09:15:25;;;;;;;3.90;2.47;;;;;;;47.47;12.07;100423.28;5107196;28;20426;-55
2022/08/11 09:17:57;;;;;;;3.05;2.83;;;;;;;48.03;11.85;100426.75;5107545;28;20051;-57
2022/08/11 09:20:24;;;;;;;2.40;2.30;;;;;;;47.85;11.68;100416.31;5107737;28;20122;-57
2022/08/11 09:28:29;;;;;;;2.42;2.30;;;;;;;47.82;11.35;100422.38;5109945;28;20035;-57
2022/08/11 09:30:56;;;;;;;2.90;2.70;;;;;;;47.87;11.04;100419.63;5093169;28;20044;-59
2022/08/11 09:33:22;;;;;;;;;;;;;;;47.15;11.57;100415.28;5108885;28;20069;-57
2022/08/11 09:35:50;;;;;;;2.90;2.70;;;;;;;47.70;11.28;100414.41;5084254;28;19915;-57
2022/08/11 09:41:04;;;;;;;3.87;2.87;;;;;;;47.42;11.52;100417.78;5113418;28;20039;-57
2022/08/11 09:46:16;;;;;;;3.25;2.42;;;;;;;45.82;12.46;100404.13;5098160;28;20127;-57
2022/08/11 09:48:44;;;;;;;5.50;2.50;;;;;;;45.65;12.24;100398.78;5112507;28;20525;-56
2022/08/11 09:51:10;;;;;;;3.10;2.80;;;;;;;46.78;11.37;100410.00;5112077;28;20324;-57
2022/08/11 09:53:39;;;;;;;2.30;2.20;;;;;;;45.07;11.50;100397.78;5113560;27;20051;-57
2022/08/11 09:58:56;;;;;;;3.67;2.50;;;;;;;45.97;11.73;100404.19;5112348;28;20054;-56
2022/08/11 10:01:27;;;;;;;5.22;4.68;;;;;;;46.95;10.96;100399.59;5078115;28;20036;-58
2022/08/11 10:04:08;;;;;;;3.10;2.60;;;;;;;47.76;10.74;100390.41;5107522;28;20036;-57
2022/08/11 10:09:22;;;;;;;2.88;2.70;;;;;;;46.64;10.98;100412.44;5077368;28;20109;-57
2022/08/11 10:11:49;;;;;;;2.63;2.42;;;;;;;46.32;11.54;100400.81;5092880;28;20044;-57
2022/08/11 10:17:07;;;;;;;2.92;2.70;;;;;;;48.18;10.76;100392.75;5091660;28;20149;-58
2022/08/11 10:19:36;;;;;;;4.55;3.17;;;;;;;48.47;10.05;100377.19;5091544;28;20032;-45
2022/08/11 10:27:33;;;;;;;12.48;8.48;;;;;;;41.67;15.38;100362.47;5111877;28;20502;-45
2022/08/11 10:35:30;;;;;;;5.55;2.97;;;;;;;43.70;13.96;100370.69;5099996;28;20063;-48
2022/08/11 10:37:58;;;;;;;5.88;5.28;;;;;;;45.13;13.01;100374.78;5101175;28;20039;-48
2022/08/11 10:40:24;;;;;;;6.57;2.58;;;;;;;45.85;12.10;100351.38;5098970;28;20201;-50
2022/08/11 10:43:05;;;;;;;4.55;2.90;;;;;;;46.49;11.80;100375.78;5101662;28;20035;-49
2022/08/11 10:48:41;;;;;;;2.88;2.60;;;;;;;41.73;14.25;100362.34;5107264;28;20043;-46
2022/08/11 10:51:13;;;;;;;2.20;1.27;;;;;;;39.79;15.74;100345.72;5097488;28;20050;-46
2022/08/11 10:59:21;;;;;;;5.53;1.38;;;;;;;36.21;18.72;100341.88;5102310;28;20031;-46
2022/08/11 11:01:47;;;;;;;;;;;;;;;35.44;19.45;100345.53;5098233;28;20044;-48
2022/08/11 11:04:16;;;;;;;1.48;1.30;;;;;;;34.72;20.96;100331.38;5110729;28;19927;-45
2022/08/11 11:07:06;;;;;;;3.15;1.55;;;;;;;34.32;21.57;100335.50;5109091;27;20517;-43
2022/08/11 11:09:40;;;;;;;4.00;2.00;;;;;;;35.85;20.33;100334.81;5109298;28;20046;-46
2022/08/11 11:17:56;;;;;;;2.92;1.83;;;;;;;40.96;15.69;100341.63;5111102;28;20041;-44
2022/08/11 11:20:38;;;;;;;6.13;2.20;;;;;;;41.56;15.32;100338.75;5107651;28;20031;-48
2022/08/11 11:23:22;;;;;;;6.32;5.63;;;;;;;42.22;15.22;100341.81;5102947;28;20089;-45
2022/08/11 11:26:13;;;;;;;11.63;7.00;;;;;;;43.04;14.41;100336.75;5110998;28;20068;-47
2022/08/11 11:29:02;;;;;;;7.38;5.30;;;;;;;43.58;13.81;100338.97;5106952;28;20047;-45
2022/08/11 11:31:31;;;;;;;6.18;2.97;;;;;;;43.92;13.21;100337.81;5105305;28;20188;-44
2022/08/11 11:34:28;;;;;;;3.30;2.53;;;;;;;44.19;13.49;100335.09;5110909;28;20059;-45
2022/08/11 11:36:55;;;;;;;7.25;2.75;;;;;;;43.86;13.29;100336.06;5108032;28;20046;-46
2022/08/11 11:39:24;;;;;;;2.63;2.42;;;;;;;43.73;13.36;100328.22;5111176;28;20064;-46
2022/08/11 11:41:52;;;;;;;3.70;2.60;;;;;;;43.88;13.32;100325.69;5093210;28;20557;-44
2022/08/11 11:44:21;;;;;;;3.28;2.80;;;;;;;44.24;13.33;100324.19;5102484;28;20048;-47
2022/08/11 11:46:48;;;;;;;4.57;2.50;;;;;;;44.57;13.18;100328.66;5102165;28;20036;-47
2022/08/11 11:49:17;;;;;;;3.75;2.40;;;;;;;44.92;12.63;100325.44;5110480;28;20526;-48
2022/08/11 11:51:47;;;;;;;4.38;2.40;;;;;;;44.26;12.88;100319.28;5089609;28;20376;-45
2022/08/11 11:54:16;;;;;;;4.20;3.80;;;;;;;44.78;12.62;100316.81;5072670;28;20039;-48
2022/08/11 11:56:42;;;;;;;8.23;2.58;;;;;;;45.23;12.45;100332.00;5089392;28;20036;-47
2022/08/11 12:01:55;;;;;;;2.33;2.20;;;;;;;44.94;12.12;100321.34;5093305;28;20040;-46
2022/08/11 12:04:21;;;;;;;2.70;2.50;;;;;;;45.01;12.26;100315.63;5091025;28;20040;-48
2022/08/11 12:06:47;;;;;;;3.10;2.80;;;;;;;45.21;12.44;100312.22;5110337;28;20062;-48
2022/08/11 12:09:17;;;;;;;10.18;5.63;;;;;;;45.54;12.46;100314.63;5092464;28;20045;-46
2022/08/11 12:14:28;;;;;;;7.47;2.20;;;;;;;44.67;12.76;100282.16;5109564;28;20073;-51
2022/08/11 12:16:55;;;;;;;5.43;2.75;;;;;;;43.48;13.79;100315.84;5109190;28;20124;-46
2022/08/11 12:19:27;;;;;;;6.35;4.90;;;;;;;43.85;12.97;100312.50;5110559;28;20089;-47
2022/08/11 12:27:42;;;;;;;5.63;4.32;;;;;;;45.38;11.99;100307.38;5091926;28;20179;-49
2022/08/11 12:30:08;;;;;;;3.40;2.70;;;;;;;45.48;12.14;100311.06;5110025;28;20040;-50
2022/08/11 12:32:36;;;;;;;13.43;11.37;;;;;;;45.71;12.62;100304.25;5108778;28;20063;-51
2022/08/11 12:35:03;;;;;;;8.27;7.47;;;;;;;45.84;12.43;100308.47;5108982;28;20040;-48
2022/08/11 12:37:30;;;;;;;;;;;;;;;45.46;12.13;100306.91;5109460;28;20035;-50
2022/08/11 12:45:33;;;;;;;2.88;2.22;;;;;;;41.80;13.68;100296.66;5100422;28;20039;-47
2022/08/11 12:53:45;;;;;;;2.47;2.28;;;;;;;42.54;13.72;100298.41;5109642;28;20437;-47
2022/08/11 13:07:14;;;;;;;3.42;2.40;;;;;;;42.11;14.18;100296.22;5113301;28;20051;-48
2022/08/11 13:09:41;;;;;;;5.30;2.20;;;;;;;41.47;14.57;100296.47;5112595;28;20051;-47
2022/08/11 13:14:51;;;;;;;5.15;1.98;;;;;;;39.07;16.96;100290.09;5094064;28;20036;-52
2022/08/11 13:17:21;;;;;;;4.07;1.80;;;;;;;38.00;17.53;100280.09;5092718;28;20539;-49
2022/08/11 13:19:48;;;;;;;7.53;2.45;;;;;;;36.88;18.76;100255.06;5093807;28;20028;-51
2022/08/11 13:22:18;;;;;;;6.33;1.87;;;;;;;36.18;19.08;100277.25;5092463;28;20036;-47
2022/08/11 13:24:45;;;;;;;15.05;2.05;;;;;;;35.66;19.79;100279.53;5105646;28;20055;-49
2022/08/11 13:27:14;;;;;;;4.55;1.40;;;;;;;35.52;19.84;100271.53;5112362;28;20031;-49
2022/08/11 13:29:41;;;;;;;3.10;1.90;;;;;;;35.62;19.44;100277.41;5112120;28;20130;-49
2022/08/11 13:32:07;;;;;;;3.17;1.77;;;;;;;34.73;19.89;100270.94;5108140;28;20056;-49
2022/08/11 13:34:40;;;;;;;5.82;3.20;;;;;;;33.65;20.76;100270.91;5085803;28;20154;-45
2022/08/11 13:37:06;;;;;;;2.15;1.70;;;;;;;32.74;21.76;100271.13;5112917;28;20491;-47
2022/08/11 13:39:33;;;;;;;6.53;2.20;;;;;;;32.38;22.25;100269.00;5113488;28;20035;-47
2022/08/11 13:42:01;;;;;;;4.35;2.08;;;;;;;32.02;22.90;100256.25;5112141;28;20085;-47
2022/08/11 13:44:29;;;;;;;4.20;2.60;;;;;;;31.72;23.19;100252.56;5110830;28;20568;-49
2022/08/11 13:46:58;;;;;;;8.20;2.42;;;;;;;31.42;23.69;100252.28;5113222;28;20062;-45
2022/08/11 13:49:23;;;;;;;;;;;;;;;31.17;23.94;100258.72;5108071;28;20139;-46
2022/08/11 13:51:49;;;;;;;4.15;2.05;;;;;;;30.97;24.32;100258.25;5093105;28;20007;-49
2022/08/11 13:54:19;;;;;;;1.92;1.50;;;;;;;30.69;24.70;100260.44;5105155;28;20407;-46
2022/08/11 13:56:47;;;;;;;4.28;2.17;;;;;;;30.41;25.07;100250.16;5111060;28;20072;-44
2022/08/11 13:59:14;;;;;;;5.22;2.00;;;;;;;30.31;25.34;100251.13;5110092;28;20043;-44
2022/08/11 14:01:45;;;;;;;4.00;2.70;;;;;;;30.17;25.79;100249.09;5103707;28;20040;-45
2022/08/11 14:04:17;;;;;;;1.90;1.48;;;;;;;30.01;25.69;100248.22;5108540;28;20521;-47
2022/08/11 14:06:50;;;;;;;3.45;1.52;;;;;;;29.87;26.21;100247.00;5111573;28;20039;-46
2022/08/11 14:09:22;;;;;;;4.65;1.80;;;;;;;29.70;26.63;100238.03;5109326;28;20039;-46
2022/08/11 14:14:34;;;;;;;4.88;3.10;;;;;;;29.51;26.64;100249.03;5091423;28;20082;-45
2022/08/11 14:17:07;;;;;;;4.55;2.60;;;;;;;29.35;26.97;100244.44;5092719;28;20427;-49
2022/08/11 14:19:37;;;;;;;4.38;2.60;;;;;;;29.20;27.12;100237.94;5094017;28;20067;-47
2022/08/11 14:22:08;;;;;;;3.60;2.55;;;;;;;28.75;27.31;100197.97;5111414;28;20050;-49
2022/08/11 14:24:39;;;;;;;5.60;2.95;;;;;;;28.84;27.59;100236.38;5112276;27;20051;-45
2022/08/11 14:27:07;;;;;;;1.98;1.50;;;;;;;28.71;27.73;100233.22;5111474;28;20039;-45
2022/08/11 14:29:37;;;;;;;3.00;1.70;;;;;;;28.64;27.78;100230.31;5092901;28;20485;-49
2022/08/11 14:32:05;;;;;;;3.45;1.20;;;;;;;28.18;28.08;100177.91;5106534;28;20043;-53
2022/08/11 14:34:37;;;;;;;3.20;1.35;;;;;;;28.08;28.47;100204.72;5112915;28;20047;-55
2022/08/11 14:37:12;;;;;;;6.18;1.55;;;;;;;28.11;28.56;100220.44;5073868;28;20534;-51
2022/08/11 14:39:46;;;;;;;4.35;1.50;;;;;;;28.07;29.00;100223.56;5073274;28;20423;-50
2022/08/11 14:47:03;;;;;;;3.53;1.98;;;;;;;27.94;29.68;100220.44;5090484;28;20035;-50
2022/08/11 14:47:51;;;;;;;5.63;2.38;;;;;;;27.74;29.90;100219.72;5089977;28;20055;-52
2022/08/11 14:50:24;;;;;;;4.28;1.90;;;;;;;27.56;30.58;100218.81;5091457;28;20040;-53
2022/08/11 14:53:20;;;;;;;7.35;2.88;;;;;;;27.39;30.48;100209.72;5090793;28;20117;-52
2022/08/11 14:58:32;;;;;;;5.88;2.13;;;;;;;27.03;30.96;100187.38;5090772;28;20424;-53
2022/08/11 15:01:00;;;;;;;8.13;2.60;;;;;;;27.13;31.08;100219.38;5092075;28;20085;-53
2022/08/11 15:03:29;;;;;;;5.00;2.35;;;;;;;27.04;31.17;100212.25;5090686;28;20493;-51
2022/08/11 15:05:58;;;;;;;2.90;1.80;;;;;;;26.96;31.04;100216.47;5090438;28;20043;-53
2022/08/11 15:14:05;;;;;;;3.40;1.88;;;;;;;26.64;31.67;100215.91;5090420;28;20149;-50
2022/08/11 15:19:19;;;;;;;4.47;2.30;;;;;;;26.45;32.29;100215.94;5090538;28;20298;-53
2022/08/11 15:24:34;;;;;;;7.18;2.20;;;;;;;26.29;33.04;100215.66;5100889;28;20032;-52
2022/08/11 15:38:03;;;;;;;3.60;1.58;;;;;;;25.85;33.70;100217.84;5110776;28;20043;-53
2022/08/11 15:46:13;;;;;;;3.35;2.00;;;;;;;25.57;34.34;100214.13;5111398;28;20036;-52
2022/08/11 15:48:58;;;;;;;3.97;1.70;;;;;;;25.49;34.79;100215.75;5110146;28;20500;-53
2022/08/11 15:51:35;;;;;;;2.70;2.08;;;;;;;25.40;34.93;100214.72;5092831;28;20899;-52
2022/08/11 15:54:18;;;;;;;5.32;2.30;;;;;;;25.33;35.17;100207.41;5110222;28;20051;-50
2022/08/11 15:56:47;;;;;;;4.18;2.03;;;;;;;25.25;34.92;100214.22;5109884;28;20083;-53
2022/08/11 16:04:45;;;;;;;4.18;1.70;;;;;;;24.99;34.86;100214.78;5110876;28;20043;-53
2022/08/11 16:07:15;;;;;;;3.35;1.63;;;;;;;24.94;34.95;100211.69;5109833;28;20031;-55
2022/08/11 16:09:52;;;;;;;8.32;2.50;;;;;;;24.87;35.44;100220.19;5109805;28;20039;-51
2022/08/11 16:12:24;;;;;;;5.78;2.22;;;;;;;24.78;35.83;100209.47;5109329;28;20088;-51
2022/08/11 16:17:45;;;;;;;3.83;2.03;;;;;;;24.60;36.48;100211.03;5109848;28;20081;-51
2022/08/11 16:20:13;;;;;;;4.88;2.00;;;;;;;24.51;36.57;100212.63;5110588;28;20036;-48
2022/08/11 16:22:42;;;;;;;3.53;2.08;;;;;;;24.42;37.07;100211.59;5110760;28;20035;-52
2022/08/11 16:25:10;;;;;;;4.82;2.30;;;;;;;24.34;37.13;100210.50;5109446;28;20051;-52
2022/08/11 16:27:42;;;;;;;4.33;1.93;;;;;;;24.26;37.31;100211.16;5110711;28;20122;-50
2022/08/11 16:30:09;;;;;;;7.03;2.45;;;;;;;24.17;37.09;100208.41;5109387;28;20297;-53